Time;durP1;ratioP1;P1;durP2;ratioP2;P2;SDS_P1;SDS_P2;PMS_P1;PMS_P2;Temp;Humidity;BMP_temperature;BMP_pressure;BME280_temperature;BME280_humidity;BME280_pressure;Samples;Min_cycle;Max_cycle;Signal;HPM_P1;HPM_P2
2023/02/14 00:00:18;;;;;;;1.63;1.52;;;-2.90;99.90;;;;;;5054164;28;20216;-71
2023/02/14 00:02:43;;;;;;;2.40;2.20;;;-3.00;99.90;;;;;;5051687;28;20699;-71
2023/02/14 00:05:09;;;;;;;0.85;0.85;;;-3.00;99.90;;;;;;5055133;28;20210;-71
2023/02/14 00:07:35;;;;;;;0.70;0.70;;;-3.00;99.90;;;;;;5055060;28;20221;-71
2023/02/14 00:10:01;;;;;;;0.70;0.70;;;-3.10;99.90;;;;;;5055071;28;20200;-72
2023/02/14 00:12:26;;;;;;;1.42;1.33;;;-3.10;99.90;;;;;;5054774;28;20209;-72
2023/02/14 00:17:36;;;;;;;1.05;1.05;;;-3.20;99.90;;;;;;5054786;28;20201;-73
2023/02/14 00:20:03;;;;;;;0.85;0.85;;;-3.20;99.90;;;;;;5054978;28;20648;-72
2023/02/14 00:22:28;;;;;;;0.70;0.70;;;-3.20;99.90;;;;;;5059897;28;20244;-72
2023/02/14 00:24:54;;;;;;;0.70;0.70;;;-3.30;99.90;;;;;;5053625;28;20660;-71
2023/02/14 00:27:20;;;;;;;0.70;0.70;;;-3.30;99.90;;;;;;5054717;28;20202;-71
2023/02/14 00:29:45;;;;;;;0.70;0.70;;;-3.30;99.90;;;;;;5054672;28;20197;-71
2023/02/14 00:32:11;;;;;;;0.70;0.70;;;-3.40;99.90;;;;;;5053252;28;20216;-71
2023/02/14 00:34:38;;;;;;;0.77;0.77;;;-3.40;99.90;;;;;;5054418;28;20190;-72
2023/02/14 00:37:04;;;;;;;0.70;0.70;;;-3.40;99.90;;;;;;5073921;28;20208;-71
2023/02/14 00:39:30;;;;;;;0.60;0.60;;;-3.40;99.90;;;;;;5074200;28;20197;-71
2023/02/14 00:41:56;;;;;;;0.82;0.82;;;-3.50;99.90;;;;;;5074438;28;20192;-70
2023/02/14 00:44:21;;;;;;;1.20;1.10;;;-3.50;99.90;;;;;;5074210;28;20290;-71
2023/02/14 00:46:47;;;;;;;0.82;0.82;;;-3.50;99.90;;;;;;5074192;28;20655;-71
2023/02/14 00:49:13;;;;;;;0.80;0.80;;;-3.50;99.90;;;;;;5074349;28;20267;-69
2023/02/14 00:51:39;;;;;;;2.25;1.20;;;-3.60;99.90;;;;;;5073788;28;20208;-69
2023/02/14 00:54:05;;;;;;;1.30;1.13;;;-3.60;99.90;;;;;;5056136;28;20276;-69
2023/02/14 00:56:31;;;;;;;0.73;0.73;;;-3.50;99.90;;;;;;5073941;28;20195;-70
2023/02/14 00:58:56;;;;;;;0.93;0.93;;;-3.50;99.90;;;;;;5074117;28;20193;-69
2023/02/14 01:01:22;;;;;;;1.00;1.00;;;-3.50;99.90;;;;;;5073707;28;20221;-71
2023/02/14 01:03:48;;;;;;;0.75;0.75;;;-3.60;99.90;;;;;;5052419;28;20287;-69
2023/02/14 01:06:14;;;;;;;0.85;0.85;;;-3.60;99.90;;;;;;5053801;28;20217;-69
2023/02/14 01:08:40;;;;;;;0.60;0.60;;;-3.60;99.90;;;;;;5052506;28;20206;-70
2023/02/14 01:11:18;;;;;;;0.63;0.63;;;-3.60;99.90;;;;;;5053608;28;20212;-69
2023/02/14 01:13:44;;;;;;;0.80;0.80;;;-3.60;99.90;;;;;;5053520;28;20186;-69
2023/02/14 01:16:13;;;;;;;0.70;0.70;;;-3.70;99.90;;;;;;5053700;28;20193;-70
2023/02/14 01:18:40;;;;;;;0.65;0.65;;;-3.70;99.90;;;;;;5053361;28;20292;-70
2023/02/14 01:21:29;;;;;;;0.60;0.60;;;-3.70;99.90;;;;;;5053635;28;20276;-69
2023/02/14 01:23:57;;;;;;;0.68;0.68;;;-3.70;99.90;;;;;;5052290;28;20250;-69
2023/02/14 01:26:24;;;;;;;0.70;0.70;;;-3.80;99.90;;;;;;5053252;28;20767;-70
2023/02/14 01:28:50;;;;;;;0.70;0.70;;;-3.80;99.90;;;;;;5052224;28;20586;-69
2023/02/14 01:31:22;;;;;;;0.63;0.63;;;-3.80;99.90;;;;;;5053120;28;20201;-69
2023/02/14 01:33:49;;;;;;;0.80;0.80;;;-3.80;99.90;;;;;;5053312;28;20186;-69
2023/02/14 01:36:19;;;;;;;0.77;0.77;;;-3.80;99.90;;;;;;5046776;28;20668;-69
2023/02/14 01:38:44;;;;;;;0.70;0.70;;;-3.80;99.90;;;;;;5033384;28;20197;-69
2023/02/14 01:41:11;;;;;;;0.75;0.75;;;-3.90;99.90;;;;;;5033374;28;20643;-69
2023/02/14 01:44:15;;;;;;;0.75;0.75;;;-3.90;99.90;;;;;;5044636;28;20194;-69
2023/02/14 01:46:43;;;;;;;0.90;0.90;;;-3.90;99.90;;;;;;5022399;28;20563;-69
2023/02/14 01:49:19;;;;;;;0.80;0.80;;;-4.00;99.90;;;;;;5053180;28;20197;-70
2023/02/14 01:51:53;;;;;;;0.80;0.80;;;-4.00;99.90;;;;;;5052070;28;20213;-69
2023/02/14 01:54:22;;;;;;;0.80;0.80;;;-4.00;99.90;;;;;;5053024;28;20550;-69
2023/02/14 01:56:56;;;;;;;0.80;0.80;;;-4.10;99.90;;;;;;5053006;28;20189;-69
2023/02/14 01:59:25;;;;;;;0.80;0.80;;;-4.10;99.90;;;;;;5052919;28;20189;-69
2023/02/14 02:01:52;;;;;;;0.80;0.80;;;-4.10;99.90;;;;;;5073966;22;20209;-69
2023/02/14 02:04:33;;;;;;;0.88;0.88;;;-4.10;99.90;;;;;;5066696;28;20219;-69
2023/02/14 02:07:02;;;;;;;0.80;0.80;;;-4.20;99.90;;;;;;5092993;28;20785;-69
2023/02/14 02:09:53;;;;;;;1.95;1.80;;;-4.10;99.90;;;;;;5092840;28;20192;-69
2023/02/14 02:12:19;;;;;;;0.80;0.80;;;-4.20;99.90;;;;;;5092639;28;20239;-69
2023/02/14 02:14:47;;;;;;;0.77;0.77;;;-4.20;99.90;;;;;;5077867;28;20628;-69
2023/02/14 02:17:36;;;;;;;0.80;0.80;;;-4.20;99.90;;;;;;5072346;28;20189;-68
2023/02/14 02:20:39;;;;;;;0.75;0.75;;;-4.20;99.90;;;;;;5071938;28;20280;-69
2023/02/14 02:23:27;;;;;;;0.85;0.85;;;-4.20;99.90;;;;;;5054495;28;20193;-69
2023/02/14 02:26:30;;;;;;;0.70;0.70;;;-4.20;99.90;;;;;;5072576;28;20208;-69
2023/02/14 02:29:31;;;;;;;0.82;0.82;;;-4.30;99.90;;;;;;5072007;28;20226;-69
2023/02/14 02:32:03;;;;;;;0.68;0.68;;;-4.30;99.90;;;;;;5054393;28;20205;-69
2023/02/14 02:34:53;;;;;;;0.70;0.70;;;-4.30;99.90;;;;;;5072189;28;20185;-69
2023/02/14 02:37:25;;;;;;;0.60;0.60;;;-4.30;99.90;;;;;;5072259;28;20216;-69
2023/02/14 02:40:03;;;;;;;0.80;0.80;;;-4.30;99.90;;;;;;5072540;28;20185;-69
2023/02/14 02:42:44;;;;;;;0.75;0.75;;;-4.30;99.90;;;;;;5072144;28;20196;-69
2023/02/14 02:45:23;;;;;;;0.70;0.70;;;-4.30;99.90;;;;;;5072452;28;20250;-69
2023/02/14 02:48:14;;;;;;;0.70;0.70;;;-4.40;99.90;;;;;;5054506;28;20638;-69
2023/02/14 02:53:42;;;;;;;0.60;0.60;;;-4.40;99.90;;;;;;5072456;28;20569;-69
2023/02/14 02:59:30;;;;;;;0.70;0.70;;;-4.30;99.90;;;;;;5072328;28;20200;-69
2023/02/14 03:02:15;;;;;;;0.70;0.70;;;-4.30;99.90;;;;;;5049748;28;20209;-69
2023/02/14 03:04:54;;;;;;;0.80;0.80;;;-4.30;99.90;;;;;;5052425;28;20209;-69
2023/02/14 03:07:34;;;;;;;0.60;0.60;;;-4.30;99.90;;;;;;5052438;28;20284;-69
2023/02/14 03:10:05;;;;;;;0.88;0.88;;;-4.30;99.90;;;;;;5058393;28;20198;-69
2023/02/14 03:12:34;;;;;;;0.70;0.70;;;-4.40;99.90;;;;;;5054424;28;20270;-69
2023/02/14 03:15:27;;;;;;;0.80;0.80;;;-4.40;99.90;;;;;;5072432;28;20192;-68
2023/02/14 03:21:09;;;;;;;5.55;3.28;;;-4.40;99.90;;;;;;5076270;28;20250;-68
2023/02/14 03:23:44;;;;;;;0.70;0.70;;;-4.40;99.90;;;;;;5058141;28;20663;-69
2023/02/14 03:26:34;;;;;;;0.80;0.80;;;-4.40;99.90;;;;;;5058347;28;20211;-69
2023/02/14 03:29:03;;;;;;;0.70;0.70;;;-4.40;99.90;;;;;;5058129;28;20242;-69
2023/02/14 03:31:56;;;;;;;0.70;0.70;;;-4.50;99.90;;;;;;5058149;28;20690;-69
2023/02/14 03:34:27;;;;;;;0.60;0.60;;;-4.50;99.90;;;;;;5075908;28;20218;-69
2023/02/14 03:37:04;;;;;;;0.70;0.70;;;-4.50;99.90;;;;;;5058165;28;20223;-68
2023/02/14 03:39:42;;;;;;;0.80;0.80;;;-4.50;99.90;;;;;;5075732;28;20215;-69
2023/02/14 03:42:15;;;;;;;0.70;0.70;;;-4.50;99.90;;;;;;5076287;28;20196;-69
2023/02/14 03:44:42;;;;;;;0.70;0.70;;;-4.50;99.90;;;;;;5057487;28;20201;-68
2023/02/14 03:47:13;;;;;;;0.63;0.63;;;-4.50;99.90;;;;;;5075909;28;20280;-69
2023/02/14 03:50:04;;;;;;;0.60;0.60;;;-4.60;99.90;;;;;;5075861;28;20208;-68
2023/02/14 03:52:33;;;;;;;0.80;0.80;;;-4.60;99.90;;;;;;5057527;28;20683;-69
2023/02/14 03:55:01;;;;;;;0.80;0.80;;;-4.60;99.90;;;;;;5057873;28;20204;-68
2023/02/14 03:57:46;;;;;;;0.95;0.95;;;-4.50;99.90;;;;;;5075702;28;20267;-68
2023/02/14 04:00:13;;;;;;;0.80;0.80;;;-4.50;99.90;;;;;;5075703;28;20189;-69
2023/02/14 04:02:45;;;;;;;0.70;0.70;;;-4.50;99.90;;;;;;5073919;28;20647;-68
2023/02/14 04:05:20;;;;;;;0.75;0.75;;;-4.50;99.90;;;;;;5075648;28;20193;-68
2023/02/14 04:07:52;;;;;;;0.70;0.70;;;-4.50;99.90;;;;;;5075444;28;20192;-68
2023/02/14 04:10:19;;;;;;;0.80;0.80;;;-4.50;99.90;;;;;;5057635;28;20247;-69
2023/02/14 04:12:46;;;;;;;0.88;0.88;;;-4.50;99.90;;;;;;5075220;28;20676;-69
2023/02/14 04:15:12;;;;;;;0.70;0.70;;;-4.50;99.90;;;;;;5057365;28;20691;-68
2023/02/14 04:20:23;;;;;;;0.68;0.68;;;-4.60;99.90;;;;;;5075104;28;20200;-69
2023/02/14 04:22:50;;;;;;;0.60;0.60;;;-4.60;99.90;;;;;;5075256;28;20220;-69
2023/02/14 04:25:19;;;;;;;0.80;0.80;;;-4.60;99.90;;;;;;5074690;28;20185;-69
2023/02/14 04:27:44;;;;;;;0.60;0.60;;;-4.60;99.90;;;;;;5060935;28;20204;-69
2023/02/14 04:30:11;;;;;;;0.80;0.80;;;-4.60;99.90;;;;;;5095306;28;20233;-68
2023/02/14 04:32:38;;;;;;;0.70;0.70;;;-4.70;99.90;;;;;;5095069;28;20577;-68
2023/02/14 04:35:04;;;;;;;0.70;0.70;;;-4.70;99.90;;;;;;5073930;28;20254;-71
2023/02/14 04:37:30;;;;;;;0.80;0.80;;;-4.70;99.90;;;;;;5074809;28;20180;-71
2023/02/14 04:39:56;;;;;;;0.70;0.70;;;-4.70;99.90;;;;;;5075219;28;20671;-71
2023/02/14 04:42:22;;;;;;;0.77;0.77;;;-4.70;99.90;;;;;;5074734;28;20239;-71
2023/02/14 04:44:47;;;;;;;0.80;0.80;;;-4.70;99.90;;;;;;5074550;28;20193;-71
2023/02/14 04:47:13;;;;;;;0.90;0.90;;;-4.70;99.90;;;;;;5074909;28;20201;-71
2023/02/14 04:49:39;;;;;;;0.73;0.73;;;-4.70;99.90;;;;;;5075034;28;20204;-74
2023/02/14 04:52:05;;;;;;;0.88;0.88;;;-4.60;99.90;;;;;;5056779;28;20296;-71
2023/02/14 04:54:31;;;;;;;0.80;0.80;;;-4.50;99.90;;;;;;5074631;28;20720;-71
2023/02/14 04:56:57;;;;;;;0.80;0.80;;;-4.40;99.90;;;;;;5074634;28;20188;-72
2023/02/14 04:59:23;;;;;;;0.60;0.60;;;-4.50;99.90;;;;;;5056666;28;20691;-71
2023/02/14 05:01:48;;;;;;;0.70;0.70;;;-4.50;99.90;;;;;;5074147;28;20209;-71
2023/02/14 05:04:14;;;;;;;0.65;0.65;;;-4.40;99.90;;;;;;5074729;28;20201;-71
2023/02/14 05:06:40;;;;;;;0.80;0.80;;;-4.30;99.90;;;;;;5074394;28;20188;-71
2023/02/14 05:09:06;;;;;;;1.20;1.10;;;-4.20;99.90;;;;;;5074516;28;20563;-70
2023/02/14 05:11:31;;;;;;;0.80;0.80;;;-4.20;99.90;;;;;;5074309;28;20254;-71
2023/02/14 05:13:57;;;;;;;0.70;0.70;;;-4.30;99.90;;;;;;5074595;28;20197;-71
2023/02/14 05:16:23;;;;;;;0.70;0.70;;;-4.40;99.90;;;;;;5074153;28;20193;-71
2023/02/14 05:18:49;;;;;;;1.13;1.10;;;-4.50;99.90;;;;;;5074231;28;20567;-71
2023/02/14 05:21:15;;;;;;;0.80;0.80;;;-4.60;99.90;;;;;;5073556;28;20203;-71
2023/02/14 05:23:41;;;;;;;0.75;0.75;;;-4.70;99.90;;;;;;5056315;28;20197;-71
2023/02/14 05:26:06;;;;;;;0.80;0.80;;;-4.70;99.90;;;;;;5074140;28;20193;-70
2023/02/14 05:28:33;;;;;;;0.75;0.75;;;-4.80;99.90;;;;;;5084974;28;20204;-71
2023/02/14 05:30:58;;;;;;;0.90;0.90;;;-4.80;99.90;;;;;;5075713;28;20669;-71
2023/02/14 05:33:26;;;;;;;1.50;1.40;;;-4.80;99.90;;;;;;5056361;28;20709;-71
2023/02/14 05:35:52;;;;;;;2.00;1.77;;;-4.90;99.90;;;;;;5073904;28;20197;-71
2023/02/14 05:38:18;;;;;;;0.80;0.80;;;-5.00;99.90;;;;;;5073035;28;20216;-71
2023/02/14 05:40:44;;;;;;;0.80;0.80;;;-5.00;99.90;;;;;;5073803;28;20251;-70
2023/02/14 05:43:10;;;;;;;0.70;0.70;;;-5.00;99.90;;;;;;5073770;28;20193;-70
2023/02/14 05:45:36;;;;;;;0.70;0.70;;;-5.00;99.90;;;;;;5073528;28;20196;-70
2023/02/14 05:48:02;;;;;;;0.88;0.88;;;-5.10;99.90;;;;;;5073833;28;20538;-70
2023/02/14 05:50:28;;;;;;;0.77;0.77;;;-5.10;99.90;;;;;;5055538;28;20201;-70
2023/02/14 05:52:55;;;;;;;0.80;0.80;;;-5.10;99.90;;;;;;5073352;28;20255;-71
2023/02/14 05:55:21;;;;;;;0.70;0.70;;;-5.20;99.90;;;;;;5073506;28;20197;-71
2023/02/14 05:57:47;;;;;;;0.90;0.90;;;-5.20;99.90;;;;;;5073617;28;20250;-70
2023/02/14 06:00:13;;;;;;;0.70;0.70;;;-5.20;99.90;;;;;;5072978;28;20586;-70
2023/02/14 06:02:40;;;;;;;0.80;0.80;;;-5.20;99.90;;;;;;5072469;28;21408;-71
2023/02/14 06:05:06;;;;;;;0.80;0.80;;;-5.10;99.90;;;;;;5073252;28;20200;-70
2023/02/14 06:07:31;;;;;;;0.80;0.80;;;-5.10;99.90;;;;;;5073339;28;20276;-70
2023/02/14 06:09:57;;;;;;;0.80;0.80;;;-4.90;99.90;;;;;;5073204;28;20708;-70
2023/02/14 06:12:23;;;;;;;0.85;0.85;;;-4.90;99.90;;;;;;5073285;28;20208;-70
2023/02/14 06:14:49;;;;;;;0.90;0.90;;;-4.90;99.90;;;;;;5073511;28;20197;-71
2023/02/14 06:17:14;;;;;;;0.80;0.80;;;-4.90;99.90;;;;;;5055158;28;20200;-71
2023/02/14 06:19:42;;;;;;;3.13;1.83;;;-4.90;99.90;;;;;;5073027;28;20189;-71
2023/02/14 06:22:08;;;;;;;0.88;0.85;;;-5.00;99.90;;;;;;5073104;28;20211;-72
2023/02/14 06:24:33;;;;;;;1.10;1.10;;;-5.00;99.90;;;;;;5081429;28;20682;-72
2023/02/14 06:27:00;;;;;;;0.80;0.80;;;-5.10;99.90;;;;;;5093115;28;20202;-72
2023/02/14 06:29:25;;;;;;;0.80;0.80;;;-5.10;99.90;;;;;;5073950;28;20639;-72
2023/02/14 06:31:51;;;;;;;0.88;0.88;;;-5.20;99.90;;;;;;5073099;28;20211;-71
2023/02/14 06:34:17;;;;;;;0.80;0.80;;;-5.30;99.90;;;;;;5072901;28;20200;-71
2023/02/14 06:36:43;;;;;;;0.80;0.80;;;-5.30;99.90;;;;;;5073050;28;20614;-72
2023/02/14 06:39:09;;;;;;;0.80;0.80;;;-5.30;99.90;;;;;;5072430;28;20189;-71
2023/02/14 06:41:35;;;;;;;0.70;0.70;;;-5.30;99.90;;;;;;5073058;28;20204;-71
2023/02/14 06:44:00;;;;;;;0.80;0.80;;;-5.30;99.90;;;;;;5072819;28;20196;-71
2023/02/14 06:46:26;;;;;;;0.90;0.90;;;-5.30;99.90;;;;;;5072569;28;20767;-71
2023/02/14 06:48:52;;;;;;;1.88;1.77;;;-5.30;99.90;;;;;;5072998;28;20204;-72
2023/02/14 06:51:18;;;;;;;0.90;0.90;;;-5.30;99.90;;;;;;5076795;28;20192;-72
2023/02/14 06:53:44;;;;;;;0.80;0.80;;;-5.20;99.90;;;;;;5077127;28;20671;-72
2023/02/14 06:56:09;;;;;;;0.80;0.80;;;-5.20;99.90;;;;;;5076609;28;20193;-72
2023/02/14 06:58:35;;;;;;;0.82;0.82;;;-5.20;99.90;;;;;;5076803;28;20285;-72
2023/02/14 07:01:01;;;;;;;0.93;0.93;;;-5.10;99.90;;;;;;5076499;28;20207;-72
2023/02/14 07:03:27;;;;;;;0.75;0.75;;;-5.00;99.90;;;;;;5076526;28;20225;-72
2023/02/14 07:05:53;;;;;;;0.80;0.80;;;-4.90;99.90;;;;;;5058994;28;20283;-72
2023/02/14 07:08:19;;;;;;;0.85;0.85;;;-4.90;99.90;;;;;;5076612;28;20221;-72
2023/02/14 07:10:45;;;;;;;0.80;0.80;;;-4.90;99.90;;;;;;5076415;28;20204;-72
2023/02/14 07:13:11;;;;;;;0.90;0.90;;;-4.90;99.90;;;;;;5075695;28;20266;-72
2023/02/14 07:15:37;;;;;;;4.22;2.30;;;-4.90;99.90;;;;;;5057626;28;20566;-72
2023/02/14 07:18:03;;;;;;;0.80;0.80;;;-4.80;99.90;;;;;;5076376;28;20189;-72
2023/02/14 07:20:29;;;;;;;0.80;0.80;;;-4.80;99.90;;;;;;5081921;28;20685;-71
2023/02/14 07:22:55;;;;;;;0.90;0.90;;;-4.80;99.90;;;;;;5078375;28;20642;-72
2023/02/14 07:25:20;;;;;;;11.13;2.67;;;-4.80;99.90;;;;;;5080454;28;20235;-72
2023/02/14 07:27:46;;;;;;;0.80;0.80;;;-4.90;99.90;;;;;;5076324;28;20645;-72
2023/02/14 07:30:13;;;;;;;0.85;0.85;;;-4.80;99.90;;;;;;5075903;28;20193;-72
2023/02/14 07:32:39;;;;;;;0.80;0.80;;;-4.80;99.90;;;;;;5057701;28;20675;-72
2023/02/14 07:35:06;;;;;;;1.52;1.42;;;-4.80;99.90;;;;;;5075899;28;20188;-71
2023/02/14 07:37:33;;;;;;;2.40;2.22;;;-4.80;99.90;;;;;;5075782;28;20192;-72
2023/02/14 07:39:59;;;;;;;0.90;0.90;;;-4.80;99.90;;;;;;5076180;28;20736;-72
2023/02/14 07:42:24;;;;;;;0.90;0.90;;;-4.70;99.90;;;;;;5075968;28;20224;-72
2023/02/14 07:44:50;;;;;;;0.70;0.70;;;-4.70;99.90;;;;;;5058071;28;20206;-72
2023/02/14 07:47:16;;;;;;;1.60;1.50;;;-4.60;99.90;;;;;;5058276;28;20270;-72
2023/02/14 07:49:41;;;;;;;0.88;0.88;;;-4.60;99.90;;;;;;5075499;28;20197;-71
2023/02/14 07:52:07;;;;;;;0.70;0.70;;;-4.50;99.90;;;;;;5075460;28;20215;-72
2023/02/14 07:54:33;;;;;;;0.70;0.70;;;-4.40;99.90;;;;;;5057144;28;20224;-72
2023/02/14 07:56:59;;;;;;;0.80;0.80;;;-4.30;99.90;;;;;;5075871;28;20193;-72
2023/02/14 07:59:25;;;;;;;0.98;0.98;;;-4.20;99.90;;;;;;5075665;28;20689;-75
2023/02/14 08:01:50;;;;;;;0.70;0.70;;;-4.20;99.90;;;;;;5074191;28;20200;-74
2023/02/14 08:04:16;;;;;;;0.80;0.80;;;-4.00;99.90;;;;;;5074485;28;20204;-73
2023/02/14 08:06:42;;;;;;;0.90;0.90;;;-4.00;99.90;;;;;;5057345;28;20192;-73
2023/02/14 08:09:09;;;;;;;0.80;0.80;;;-3.80;99.90;;;;;;5075092;28;20276;-73
2023/02/14 08:14:20;;;;;;;0.70;0.70;;;-3.70;99.90;;;;;;5075899;28;20336;-72
2023/02/14 08:16:46;;;;;;;0.80;0.80;;;-3.60;99.90;;;;;;5064122;28;20196;-72
2023/02/14 08:19:12;;;;;;;0.95;0.95;;;-3.50;99.90;;;;;;5095572;28;20281;-72
2023/02/14 08:21:38;;;;;;;9.27;2.47;;;-3.40;99.90;;;;;;5079373;28;20200;-72
2023/02/14 08:24:04;;;;;;;0.70;0.70;;;-3.20;99.90;;;;;;5075361;28;20212;-72
2023/02/14 08:26:31;;;;;;;0.77;0.77;;;-3.10;99.90;;;;;;5075089;28;20201;-72
2023/02/14 08:28:57;;;;;;;0.70;0.70;;;-3.10;99.90;;;;;;5075247;28;20189;-72
2023/02/14 08:31:24;;;;;;;0.70;0.70;;;-3.00;99.90;;;;;;5074896;28;20260;-72
2023/02/14 08:33:49;;;;;;;1.83;0.95;;;-2.90;99.90;;;;;;5075069;28;20270;-72
2023/02/14 08:36:16;;;;;;;35.05;3.42;;;-2.90;99.90;;;;;;5074963;28;20224;-72
2023/02/14 08:38:44;;;;;;;1.98;1.85;;;-2.80;99.90;;;;;;5074460;28;20195;-72
2023/02/14 08:41:11;;;;;;;0.88;0.88;;;-2.70;99.90;;;;;;5074930;28;20706;-72
2023/02/14 08:43:37;;;;;;;2.65;2.17;;;-2.60;99.90;;;;;;5074911;28;20272;-72
2023/02/14 08:46:02;;;;;;;0.90;0.90;;;-2.50;99.90;;;;;;5056822;28;20203;-72
2023/02/14 08:48:28;;;;;;;0.70;0.70;;;-2.40;99.90;;;;;;5074590;28;20197;-72
2023/02/14 08:50:54;;;;;;;0.60;0.60;;;-2.40;99.90;;;;;;5056793;28;20211;-72
2023/02/14 08:53:20;;;;;;;0.60;0.60;;;-2.30;99.90;;;;;;5074822;28;20713;-72
2023/02/14 08:55:46;;;;;;;0.70;0.70;;;-2.20;99.90;;;;;;5074845;28;20189;-72
2023/02/14 08:58:13;;;;;;;0.68;0.68;;;-2.20;99.90;;;;;;5074499;28;20276;-72
2023/02/14 09:00:39;;;;;;;0.80;0.80;;;-2.10;99.90;;;;;;5074501;28;20350;-72
2023/02/14 09:03:04;;;;;;;2.38;2.03;;;-1.90;99.90;;;;;;5073829;28;20675;-72
2023/02/14 09:05:31;;;;;;;0.68;0.68;;;-1.90;99.90;;;;;;5056350;28;20287;-72
2023/02/14 09:07:57;;;;;;;0.70;0.70;;;-1.80;99.90;;;;;;5056859;28;20287;-73
2023/02/14 09:10:24;;;;;;;0.80;0.80;;;-1.70;99.90;;;;;;5074403;28;20239;-72
2023/02/14 09:12:50;;;;;;;0.93;0.93;;;-1.70;99.90;;;;;;5061190;28;20208;-72
2023/02/14 09:15:16;;;;;;;1.67;1.58;;;-1.70;99.90;;;;;;5076548;28;20193;-72
2023/02/14 09:17:42;;;;;;;0.70;0.70;;;-1.70;99.90;;;;;;5079314;28;20204;-72
2023/02/14 09:20:10;;;;;;;4.20;3.17;;;-1.80;99.90;;;;;;5074192;28;20193;-73
2023/02/14 09:22:36;;;;;;;0.75;0.75;;;-1.80;99.90;;;;;;5056086;28;20204;-73
2023/02/14 09:25:01;;;;;;;0.80;0.80;;;-1.70;99.90;;;;;;5074173;28;20539;-73
2023/02/14 09:27:27;;;;;;;0.70;0.70;;;-1.60;99.90;;;;;;5056117;28;20203;-72
2023/02/14 09:29:53;;;;;;;0.70;0.70;;;-1.60;99.90;;;;;;5056302;28;20623;-73
2023/02/14 09:32:19;;;;;;;1.70;1.60;;;-1.50;99.90;;;;;;5074037;28;20211;-73
2023/02/14 09:40:15;;;;;;;0.70;0.70;;;-1.30;99.90;;;;;;5074106;28;20192;-73
2023/02/14 09:43:06;;;;;;;0.88;0.88;;;-1.30;99.90;;;;;;5073425;28;20193;-73
2023/02/14 09:45:32;;;;;;;0.90;0.90;;;-1.30;99.90;;;;;;5073618;28;20189;-73
2023/02/14 09:48:17;;;;;;;0.80;0.80;;;-1.20;99.90;;;;;;5055298;28;20193;-73
2023/02/14 09:50:51;;;;;;;0.70;0.70;;;-1.00;99.90;;;;;;5073028;28;20192;-73
2023/02/14 09:53:24;;;;;;;0.60;0.60;;;-0.90;99.90;;;;;;5073447;28;20293;-73
2023/02/14 09:56:11;;;;;;;0.45;0.45;;;-0.90;99.90;;;;;;5073571;28;20226;-73
2023/02/14 09:59:03;;;;;;;0.70;0.70;;;-1.00;99.90;;;;;;5073186;28;20302;-73
2023/02/14 10:01:37;;;;;;;1.13;1.10;;;-0.90;99.90;;;;;;5066440;28;20221;-73
2023/02/14 10:04:17;;;;;;;3.42;1.23;;;-1.00;99.90;;;;;;5071101;28;20705;-73
2023/02/14 10:06:53;;;;;;;0.80;0.80;;;-1.00;99.90;;;;;;5073252;28;20208;-73
2023/02/14 10:09:38;;;;;;;0.73;0.73;;;-0.90;99.90;;;;;;5080367;28;20199;-73
2023/02/14 10:12:09;;;;;;;1.20;1.05;;;-0.80;99.90;;;;;;5093511;28;20715;-74
2023/02/14 10:14:39;;;;;;;0.70;0.70;;;-0.70;99.90;;;;;;5073344;28;20268;-74
2023/02/14 10:17:14;;;;;;;0.60;0.60;;;-0.60;99.90;;;;;;5055310;28;20196;-74
2023/02/14 10:19:56;;;;;;;1.92;1.42;;;-0.60;99.90;;;;;;5073232;28;20202;-74
2023/02/14 10:23:08;;;;;;;0.80;0.80;;;-0.50;99.90;;;;;;5055074;28;20227;-74
2023/02/14 10:25:47;;;;;;;0.70;0.70;;;-0.50;99.90;;;;;;5012542;28;20299;-75
2023/02/14 10:28:15;;;;;;;0.60;0.60;;;-0.40;99.90;;;;;;5073877;28;20211;-74
2023/02/14 10:30:54;;;;;;;0.68;0.68;;;-0.30;99.90;;;;;;5055158;28;20207;-75
2023/02/14 10:33:26;;;;;;;0.68;0.68;;;-0.20;99.90;;;;;;5055067;28;20200;-74
2023/02/14 10:36:20;;;;;;;0.77;0.77;;;-0.30;99.90;;;;;;5073041;28;20189;-75
2023/02/14 10:39:14;;;;;;;0.60;0.60;;;-0.40;99.90;;;;;;5072811;28;20189;-74
2023/02/14 10:41:57;;;;;;;0.68;0.68;;;-0.50;99.90;;;;;;5072779;28;20655;-75
2023/02/14 10:44:53;;;;;;;0.63;0.63;;;-0.50;99.90;;;;;;5072802;28;20211;-75
2023/02/14 10:47:34;;;;;;;0.90;0.90;;;-0.30;99.90;;;;;;5055135;28;20215;-75
2023/02/14 10:50:08;;;;;;;0.68;0.68;;;-0.20;99.90;;;;;;5072992;28;20227;-75
2023/02/14 10:52:42;;;;;;;0.70;0.70;;;-0.20;99.90;;;;;;5072799;28;20243;-74
2023/02/14 10:55:47;;;;;;;0.88;0.88;;;-0.20;99.90;;;;;;5072807;28;20550;-75
2023/02/14 10:58:17;;;;;;;0.60;0.60;;;-0.10;99.90;;;;;;5054685;28;20276;-75
2023/02/14 11:00:53;;;;;;;0.80;0.80;;;0.00;99.90;;;;;;5072936;28;20195;-75
2023/02/14 11:03:19;;;;;;;0.70;0.70;;;0.10;99.90;;;;;;5031676;28;20229;-75
2023/02/14 11:05:49;;;;;;;0.55;0.55;;;0.10;99.90;;;;;;5049697;28;20212;-75
2023/02/14 11:08:25;;;;;;;0.60;0.60;;;0.20;99.90;;;;;;5072912;28;20231;-75
2023/02/14 11:10:54;;;;;;;0.60;0.60;;;0.30;99.90;;;;;;5052754;28;20220;-75
2023/02/14 11:13:49;;;;;;;0.50;0.50;;;0.30;99.90;;;;;;5052709;28;20292;-75
2023/02/14 11:16:31;;;;;;;0.60;0.60;;;0.50;99.90;;;;;;5039758;28;20619;-75
2023/02/14 11:19:15;;;;;;;0.80;0.80;;;0.50;99.90;;;;;;5052709;28;20273;-75
2023/02/14 11:21:43;;;;;;;0.60;0.60;;;0.40;99.90;;;;;;5052403;28;20193;-75
2023/02/14 11:24:27;;;;;;;0.50;0.50;;;0.40;99.90;;;;;;5052585;28;20196;-75
2023/02/14 11:27:18;;;;;;;0.68;0.68;;;0.40;99.90;;;;;;5052598;28;20327;-75
2023/02/14 11:29:51;;;;;;;1.45;1.33;;;0.50;99.90;;;;;;5024497;28;20684;-75
2023/02/14 11:32:21;;;;;;;0.68;0.68;;;0.50;99.90;;;;;;5031267;28;20210;-75
2023/02/14 11:35:01;;;;;;;0.60;0.60;;;0.50;99.90;;;;;;5032553;28;20231;-75
2023/02/14 11:37:28;;;;;;;0.70;0.70;;;0.60;99.90;;;;;;5050424;28;20198;-75
2023/02/14 11:39:56;;;;;;;0.50;0.50;;;0.60;99.90;;;;;;5054946;28;20197;-75
2023/02/14 11:42:38;;;;;;;0.60;0.60;;;0.60;99.90;;;;;;5055767;28;20194;-75
2023/02/14 11:45:05;;;;;;;0.70;0.70;;;0.60;99.90;;;;;;5055996;28;20690;-75
2023/02/14 11:47:33;;;;;;;0.60;0.60;;;0.70;99.90;;;;;;5055529;28;20196;-75
2023/02/14 11:50:05;;;;;;;0.70;0.70;;;0.80;99.90;;;;;;5054646;28;20198;-75
2023/02/14 11:52:32;;;;;;;0.60;0.60;;;0.80;99.90;;;;;;5055432;28;20202;-75
2023/02/14 11:54:59;;;;;;;0.70;0.70;;;0.90;99.90;;;;;;5055794;28;20276;-75
2023/02/14 11:57:43;;;;;;;0.65;0.65;;;0.90;99.90;;;;;;5054302;28;20208;-75
2023/02/14 12:00:18;;;;;;;0.65;0.65;;;0.80;99.90;;;;;;5055790;28;20197;-75
2023/02/14 12:02:54;;;;;;;0.70;0.70;;;0.90;99.90;;;;;;5077864;28;20232;-75
2023/02/14 12:05:33;;;;;;;0.50;0.50;;;0.90;99.90;;;;;;5073056;28;20201;-76
2023/02/14 12:08:09;;;;;;;0.60;0.60;;;1.00;99.90;;;;;;5057902;28;20270;-76
2023/02/14 12:10:36;;;;;;;0.80;0.80;;;1.00;99.90;;;;;;5075633;28;20188;-75
2023/02/14 12:13:11;;;;;;;0.60;0.60;;;1.00;99.90;;;;;;5075494;28;20208;-72
2023/02/14 12:15:43;;;;;;;0.52;0.52;;;0.90;99.90;;;;;;5075440;28;20263;-70
2023/02/14 12:18:36;;;;;;;0.65;0.65;;;0.90;99.90;;;;;;5075004;28;20197;-70
2023/02/14 12:21:14;;;;;;;0.60;0.60;;;1.00;99.90;;;;;;5075171;28;20687;-71
2023/02/14 12:23:51;;;;;;;0.60;0.60;;;1.00;99.90;;;;;;5056082;28;20197;-70
2023/02/14 12:26:32;;;;;;;0.60;0.60;;;1.10;99.90;;;;;;5057011;28;20200;-71
2023/02/14 12:29:01;;;;;;;0.65;0.65;;;1.20;99.90;;;;;;5074829;28;20275;-71
2023/02/14 12:31:26;;;;;;;0.60;0.60;;;1.30;99.90;;;;;;5056703;28;20205;-71
2023/02/14 12:33:53;;;;;;;0.60;0.60;;;1.40;99.90;;;;;;5056842;28;20219;-71
2023/02/14 12:36:37;;;;;;;0.60;0.60;;;1.40;99.90;;;;;;5074706;28;20659;-72
2023/02/14 12:39:30;;;;;;;0.65;0.65;;;1.30;99.90;;;;;;5074720;28;20712;-71
2023/02/14 12:42:22;;;;;;;1.30;1.20;;;1.40;99.90;;;;;;5064557;28;20577;-71
2023/02/14 12:44:58;;;;;;;0.60;0.60;;;1.30;99.90;;;;;;5074661;28;20292;-71
2023/02/14 12:47:44;;;;;;;1.27;1.17;;;1.40;99.90;;;;;;5073681;28;20200;-70
2023/02/14 12:50:15;;;;;;;0.70;0.70;;;1.40;99.90;;;;;;5074371;28;20648;-70
2023/02/14 12:53:15;;;;;;;0.73;0.73;;;1.20;99.90;;;;;;5074137;28;20216;-71
2023/02/14 12:56:08;;;;;;;0.63;0.63;;;1.30;99.90;;;;;;5035423;28;20205;-70
2023/02/14 12:58:52;;;;;;;0.50;0.50;;;1.40;99.90;;;;;;5084531;28;20242;-70
2023/02/14 13:01:55;;;;;;;0.80;0.80;;;1.40;99.90;;;;;;5090663;28;20201;-71
2023/02/14 13:04:45;;;;;;;0.65;0.65;;;1.40;99.90;;;;;;5049253;28;20248;-71
2023/02/14 13:07:36;;;;;;;0.75;0.75;;;1.40;99.90;;;;;;5073461;28;20714;-70
2023/02/14 13:10:11;;;;;;;0.70;0.70;;;1.50;99.90;;;;;;5073926;28;20643;-71
2023/02/14 13:12:44;;;;;;;0.63;0.63;;;1.50;99.90;;;;;;5073688;28;20227;-70
2023/02/14 13:15:53;;;;;;;1.08;1.00;;;1.50;99.90;;;;;;5073863;28;20196;-70
2023/02/14 13:18:45;;;;;;;0.60;0.60;;;1.40;99.90;;;;;;5072644;28;20296;-72
2023/02/14 13:21:16;;;;;;;0.70;0.70;;;1.40;99.90;;;;;;5073836;28;20199;-71
2023/02/14 13:23:52;;;;;;;0.70;0.70;;;1.30;99.90;;;;;;5073923;28;20276;-70
2023/02/14 13:26:23;;;;;;;0.80;0.80;;;1.30;99.90;;;;;;5073686;28;20250;-70
2023/02/14 13:29:00;;;;;;;0.70;0.70;;;1.30;99.90;;;;;;5073643;28;20185;-70
2023/02/14 13:31:26;;;;;;;0.73;0.73;;;1.30;99.90;;;;;;5055815;28;20208;-71
2023/02/14 13:34:04;;;;;;;0.75;0.75;;;1.30;99.90;;;;;;5056397;28;20666;-72